Time;durP1;ratioP1;P1;durP2;ratioP2;P2;SDS_P1;SDS_P2;PMS_P1;PMS_P2;Temp;Humidity;BMP_temperature;BMP_pressure;BME280_temperature;BME280_humidity;BME280_pressure;Samples;Min_cycle;Max_cycle;Signal;HPM_P1;HPM_P2
2022/12/13 00:00:09;;;;;;;36.05;32.72;;;;;;;;;;5096575;28;20206;-78
2022/12/13 00:02:36;;;;;;;37.55;33.83;;;;;;;;;;5096083;28;20191;-79
2022/12/13 00:05:03;;;;;;;39.13;35.20;;;;;;;;;;5095242;28;20654;-79
2022/12/13 00:07:30;;;;;;;38.70;33.88;;;;;;;;;;5096174;28;20241;-78
2022/12/13 00:09:59;;;;;;;44.03;35.30;;;;;;;;;;5096004;28;20203;-79
2022/12/13 00:12:26;;;;;;;38.63;34.78;;;;;;;;;;5099889;28;20213;-80
2022/12/13 00:14:53;;;;;;;35.90;32.42;;;;;;;;;;5099567;28;20210;-79
2022/12/13 00:17:20;;;;;;;38.53;34.42;;;;;;;;;;5100030;28;20229;-79
2022/12/13 00:19:48;;;;;;;40.13;35.30;;;;;;;;;;5099697;28;20225;-79
2022/12/13 00:22:15;;;;;;;40.67;35.65;;;;;;;;;;5099854;28;20206;-78
2022/12/13 00:24:42;;;;;;;41.78;35.15;;;;;;;;;;5100029;28;20203;-79
2022/12/13 00:27:11;;;;;;;41.22;36.85;;;;;;;;;;5100125;28;20226;-79
2022/12/13 00:29:38;;;;;;;39.80;35.58;;;;;;;;;;5099791;28;20209;-79
2022/12/13 00:32:05;;;;;;;39.53;35.53;;;;;;;;;;5099971;28;20202;-79
2022/12/13 00:34:32;;;;;;;38.85;34.45;;;;;;;;;;5099160;28;20203;-80
2022/12/13 00:36:59;;;;;;;39.55;35.03;;;;;;;;;;5099731;28;20223;-79
2022/12/13 00:39:27;;;;;;;35.50;32.00;;;;;;;;;;5099619;28;20214;-78
2022/12/13 00:41:54;;;;;;;39.38;35.42;;;;;;;;;;5099828;28;20226;-79
2022/12/13 00:44:22;;;;;;;38.78;34.72;;;;;;;;;;5099046;28;20974;-78
2022/12/13 00:46:50;;;;;;;35.83;32.22;;;;;;;;;;5099752;28;20232;-80
2022/12/13 00:49:18;;;;;;;36.95;32.35;;;;;;;;;;5099655;28;20199;-80
2022/12/13 00:51:47;;;;;;;43.13;34.28;;;;;;;;;;5099486;28;20225;-79
2022/12/13 00:54:14;;;;;;;40.13;35.80;;;;;;;;;;5098318;28;20198;-79
2022/12/13 00:56:41;;;;;;;36.42;32.72;;;;;;;;;;5099081;28;20678;-80
2022/12/13 00:59:08;;;;;;;36.40;33.05;;;;;;;;;;5098918;28;20206;-79
2022/12/13 01:01:37;;;;;;;38.35;34.40;;;;;;;;;;5099168;28;20681;-79
2022/12/13 01:04:05;;;;;;;41.88;35.85;;;;;;;;;;5098679;28;20214;-78
2022/12/13 01:06:35;;;;;;;39.63;35.20;;;;;;;;;;5099042;28;20223;-79
2022/12/13 01:09:02;;;;;;;40.08;34.63;;;;;;;;;;5099466;28;20222;-80
2022/12/13 01:11:29;;;;;;;41.45;36.75;;;;;;;;;;5099029;28;20213;-78
2022/12/13 01:13:56;;;;;;;44.58;33.72;;;;;;;;;;5098316;28;20206;-79
2022/12/13 01:16:24;;;;;;;39.10;35.15;;;;;;;;;;5098990;28;20219;-79
2022/12/13 01:18:52;;;;;;;38.33;34.17;;;;;;;;;;5099456;28;20210;-80
2022/12/13 01:21:20;;;;;;;40.80;36.42;;;;;;;;;;5099006;28;20286;-80
2022/12/13 01:23:47;;;;;;;39.38;34.85;;;;;;;;;;5097212;28;20203;-80
2022/12/13 01:26:15;;;;;;;39.15;35.15;;;;;;;;;;5098831;28;20229;-78
2022/12/13 01:28:42;;;;;;;37.13;33.05;;;;;;;;;;5098537;28;20234;-78
2022/12/13 01:31:10;;;;;;;39.40;35.17;;;;;;;;;;5098654;28;20202;-79
2022/12/13 01:33:38;;;;;;;37.65;33.55;;;;;;;;;;5098549;28;20209;-80
2022/12/13 01:36:08;;;;;;;40.95;36.95;;;;;;;;;;5098553;28;20234;-79
2022/12/13 01:38:35;;;;;;;37.67;33.60;;;;;;;;;;5098990;28;20203;-79
2022/12/13 01:41:03;;;;;;;36.40;32.72;;;;;;;;;;5099000;28;20215;-80
2022/12/13 01:43:50;;;;;;;41.38;35.17;;;;;;;;;;5098157;28;20199;-80
2022/12/13 01:46:17;;;;;;;38.85;34.30;;;;;;;;;;5098901;28;20234;-80
2022/12/13 01:48:47;;;;;;;39.03;35.15;;;;;;;;;;5098694;28;20222;-79
2022/12/13 01:51:17;;;;;;;38.47;34.40;;;;;;;;;;5098354;28;20198;-80
2022/12/13 01:53:45;;;;;;;38.95;34.80;;;;;;;;;;5097859;28;20187;-79
2022/12/13 01:56:15;;;;;;;39.28;34.92;;;;;;;;;;5098264;28;20233;-78
2022/12/13 01:58:42;;;;;;;37.22;33.20;;;;;;;;;;5098919;28;20194;-79
2022/12/13 02:01:09;;;;;;;37.28;33.58;;;;;;;;;;5098676;28;20207;-79
2022/12/13 02:03:36;;;;;;;38.05;34.15;;;;;;;;;;5097851;28;20207;-79
2022/12/13 02:06:05;;;;;;;42.13;36.60;;;;;;;;;;5097563;28;20223;-80
2022/12/13 02:08:34;;;;;;;37.33;33.45;;;;;;;;;;5098675;28;20245;-79
2022/12/13 02:11:03;;;;;;;39.30;35.10;;;;;;;;;;5098512;28;20429;-80
2022/12/13 02:13:30;;;;;;;37.88;34.28;;;;;;;;;;5097432;28;20224;-79
2022/12/13 02:16:02;;;;;;;36.78;32.97;;;;;;;;;;5090307;28;20230;-79
2022/12/13 02:18:40;;;;;;;36.85;33.20;;;;;;;;;;5077605;28;20197;-79
2022/12/13 02:21:20;;;;;;;38.30;34.35;;;;;;;;;;5077797;28;20191;-78
2022/12/13 02:24:16;;;;;;;38.05;34.10;;;;;;;;;;5077540;28;20195;-80
2022/12/13 02:26:52;;;;;;;37.10;33.20;;;;;;;;;;5076838;28;20228;-79
2022/12/13 02:29:46;;;;;;;38.20;34.17;;;;;;;;;;5077437;28;20233;-78
2022/12/13 02:32:16;;;;;;;39.03;34.95;;;;;;;;;;5077742;28;20237;-79
2022/12/13 02:34:46;;;;;;;38.17;34.15;;;;;;;;;;5076548;28;20211;-80
2022/12/13 02:37:19;;;;;;;36.35;32.88;;;;;;;;;;5076557;28;20227;-79
2022/12/13 02:39:49;;;;;;;40.20;35.97;;;;;;;;;;5077713;28;20212;-78
2022/12/13 02:42:18;;;;;;;37.85;33.85;;;;;;;;;;5077215;28;20191;-79
2022/12/13 02:44:50;;;;;;;37.92;33.92;;;;;;;;;;5076403;28;20207;-81
2022/12/13 02:47:21;;;;;;;37.30;33.85;;;;;;;;;;5076850;28;20226;-80
2022/12/13 02:49:50;;;;;;;39.85;35.97;;;;;;;;;;5076674;28;20234;-80
2022/12/13 02:52:19;;;;;;;39.30;35.60;;;;;;;;;;5076608;28;20203;-80
2022/12/13 02:54:46;;;;;;;39.60;35.50;;;;;;;;;;5076480;28;20211;-81
2022/12/13 02:57:28;;;;;;;37.58;33.85;;;;;;;;;;5076135;28;20745;-79
2022/12/13 02:59:55;;;;;;;38.10;34.15;;;;;;;;;;5076801;28;20222;-78
2022/12/13 03:02:25;;;;;;;39.90;35.75;;;;;;;;;;5077055;28;20218;-79
2022/12/13 03:07:47;;;;;;;37.80;34.20;;;;;;;;;;5076567;28;20237;-80
2022/12/13 03:10:19;;;;;;;36.58;33.17;;;;;;;;;;5076864;28;20183;-78
2022/12/13 03:15:37;;;;;;;39.13;35.25;;;;;;;;;;5076436;28;20222;-80
2022/12/13 03:18:14;;;;;;;37.90;34.40;;;;;;;;;;5076621;28;20624;-79
2022/12/13 03:20:45;;;;;;;39.78;35.58;;;;;;;;;;5077180;28;20191;-79
2022/12/13 03:23:12;;;;;;;38.50;34.83;;;;;;;;;;5076595;28;20192;-78
2022/12/13 03:25:39;;;;;;;36.80;32.92;;;;;;;;;;5076162;28;20223;-78
2022/12/13 03:28:07;;;;;;;37.05;33.25;;;;;;;;;;5076720;28;20219;-79
2022/12/13 03:30:34;;;;;;;39.20;35.38;;;;;;;;;;5076237;28;20206;-80
2022/12/13 03:33:02;;;;;;;38.75;34.80;;;;;;;;;;5075744;28;20211;-80
2022/12/13 03:35:30;;;;;;;38.78;34.67;;;;;;;;;;5076551;28;20227;-80
2022/12/13 03:37:58;;;;;;;36.75;32.83;;;;;;;;;;5076474;28;20231;-81
2022/12/13 03:40:26;;;;;;;36.15;32.33;;;;;;;;;;5076290;28;20268;-81
2022/12/13 03:42:54;;;;;;;36.92;33.22;;;;;;;;;;5076164;28;20642;-79
2022/12/13 03:45:21;;;;;;;36.30;32.70;;;;;;;;;;5075375;28;20227;-79
2022/12/13 03:47:48;;;;;;;35.83;32.40;;;;;;;;;;5076411;28;20203;-80
2022/12/13 03:50:15;;;;;;;35.03;31.25;;;;;;;;;;5076328;28;20210;-79
2022/12/13 03:52:46;;;;;;;35.58;32.17;;;;;;;;;;5076136;28;20572;-79
2022/12/13 03:55:13;;;;;;;33.35;29.95;;;;;;;;;;5075829;28;20241;-81
2022/12/13 03:57:41;;;;;;;35.88;32.33;;;;;;;;;;5076023;28;20207;-79
2022/12/13 04:00:09;;;;;;;36.90;33.08;;;;;;;;;;5076294;28;20203;-79
2022/12/13 04:02:36;;;;;;;36.33;32.70;;;;;;;;;;5075787;28;20210;-80
2022/12/13 04:05:03;;;;;;;36.53;32.63;;;;;;;;;;5075412;28;20590;-80
2022/12/13 04:07:30;;;;;;;36.15;32.47;;;;;;;;;;5075852;28;20682;-79
2022/12/13 04:09:59;;;;;;;34.65;31.55;;;;;;;;;;5075860;28;20619;-78
2022/12/13 04:15:11;;;;;;;37.08;32.63;;;;;;;;;;5075548;28;20183;-80
2022/12/13 04:17:38;;;;;;;34.60;31.00;;;;;;;;;;5076284;28;20218;-79
2022/12/13 04:20:05;;;;;;;36.95;33.25;;;;;;;;;;5075957;28;20206;-79
2022/12/13 04:22:32;;;;;;;34.33;31.02;;;;;;;;;;5076050;28;20206;-80
2022/12/13 04:25:01;;;;;;;38.33;32.80;;;;;;;;;;5075281;28;20206;-79
2022/12/13 04:27:28;;;;;;;34.42;30.92;;;;;;;;;;5076245;28;20211;-79
2022/12/13 04:29:55;;;;;;;34.10;30.55;;;;;;;;;;5076521;28;20215;-79
2022/12/13 04:32:22;;;;;;;35.03;31.48;;;;;;;;;;5076059;28;20199;-79
2022/12/13 04:34:49;;;;;;;35.47;31.33;;;;;;;;;;5075020;28;20214;-78
2022/12/13 04:37:16;;;;;;;36.45;32.58;;;;;;;;;;5075284;28;20789;-80
2022/12/13 04:39:43;;;;;;;36.60;32.78;;;;;;;;;;5075500;28;20214;-79
2022/12/13 04:42:12;;;;;;;34.25;30.65;;;;;;;;;;5075627;28;20207;-80
2022/12/13 04:44:39;;;;;;;35.28;32.05;;;;;;;;;;5074578;28;20656;-80
2022/12/13 04:47:06;;;;;;;34.47;31.05;;;;;;;;;;5075565;28;20705;-79
2022/12/13 04:49:34;;;;;;;33.70;30.52;;;;;;;;;;5075606;28;20237;-79
2022/12/13 04:52:01;;;;;;;34.40;31.23;;;;;;;;;;5075765;28;20206;-79
2022/12/13 04:54:29;;;;;;;36.38;32.40;;;;;;;;;;5075085;28;20222;-79
2022/12/13 04:56:56;;;;;;;35.55;31.85;;;;;;;;;;5076800;28;20231;-79
2022/12/13 04:59:24;;;;;;;37.03;33.40;;;;;;;;;;5079229;28;20203;-80
2022/12/13 05:01:51;;;;;;;35.03;31.35;;;;;;;;;;5078417;28;20210;-80
2022/12/13 05:04:18;;;;;;;36.22;32.50;;;;;;;;;;5078581;28;20309;-79
2022/12/13 05:06:45;;;;;;;35.40;31.63;;;;;;;;;;5078547;28;20641;-79
2022/12/13 05:09:12;;;;;;;35.65;32.10;;;;;;;;;;5079066;28;20230;-80
2022/12/13 05:11:39;;;;;;;37.33;33.53;;;;;;;;;;5079137;28;20204;-80
2022/12/13 05:14:06;;;;;;;32.92;29.42;;;;;;;;;;5077644;28;20210;-79
2022/12/13 05:16:35;;;;;;;33.78;30.33;;;;;;;;;;5079378;28;20234;-79
2022/12/13 05:19:02;;;;;;;36.38;32.47;;;;;;;;;;5078809;28;20199;-79
2022/12/13 05:21:29;;;;;;;37.05;33.30;;;;;;;;;;5079205;28;20207;-80
2022/12/13 05:23:56;;;;;;;34.40;30.90;;;;;;;;;;5076990;28;20214;-79
2022/12/13 05:26:23;;;;;;;35.90;32.20;;;;;;;;;;5077639;28;20234;-79
2022/12/13 05:28:50;;;;;;;34.30;30.90;;;;;;;;;;5078760;28;20207;-80
2022/12/13 05:31:17;;;;;;;34.88;31.63;;;;;;;;;;5078619;28;20208;-78
2022/12/13 05:33:46;;;;;;;34.53;30.95;;;;;;;;;;5077442;28;20203;-79
2022/12/13 05:36:15;;;;;;;35.20;30.73;;;;;;;;;;5078194;28;20292;-80
2022/12/13 05:38:42;;;;;;;32.53;29.38;;;;;;;;;;5078344;28;20199;-80
2022/12/13 05:41:10;;;;;;;33.90;30.70;;;;;;;;;;5077743;28;20694;-79
2022/12/13 05:43:37;;;;;;;33.67;30.38;;;;;;;;;;5077316;28;20211;-78
2022/12/13 05:46:04;;;;;;;33.38;30.05;;;;;;;;;;5077810;28;20227;-78
2022/12/13 05:48:31;;;;;;;35.90;32.13;;;;;;;;;;5078088;28;20204;-79
2022/12/13 05:51:00;;;;;;;32.53;29.40;;;;;;;;;;5077833;28;20670;-80
2022/12/13 05:53:27;;;;;;;35.55;32.10;;;;;;;;;;5077184;28;20706;-79
2022/12/13 05:55:55;;;;;;;33.03;30.00;;;;;;;;;;5077549;28;20581;-80
2022/12/13 05:58:22;;;;;;;36.63;31.48;;;;;;;;;;5077985;28;20207;-80
2022/12/13 06:00:49;;;;;;;35.75;31.88;;;;;;;;;;5077724;28;20211;-79
2022/12/13 06:03:16;;;;;;;39.00;32.47;;;;;;;;;;5077325;28;20199;-79
2022/12/13 06:05:43;;;;;;;32.55;29.55;;;;;;;;;;5077460;28;20219;-80
2022/12/13 06:08:12;;;;;;;32.33;29.35;;;;;;;;;;5076787;28;20203;-78
2022/12/13 06:10:39;;;;;;;33.38;30.02;;;;;;;;;;5077738;28;20230;-78
2022/12/13 06:13:06;;;;;;;33.92;29.80;;;;;;;;;;5077045;28;20203;-80
2022/12/13 06:15:33;;;;;;;34.58;31.10;;;;;;;;;;5077662;28;20219;-79
2022/12/13 06:18:00;;;;;;;33.05;29.75;;;;;;;;;;5077331;28;20209;-80
2022/12/13 06:20:28;;;;;;;40.20;31.52;;;;;;;;;;5077626;28;20215;-78
2022/12/13 06:22:55;;;;;;;34.25;30.73;;;;;;;;;;5077437;28;20812;-82
2022/12/13 06:25:23;;;;;;;33.38;29.98;;;;;;;;;;5091809;28;20221;-78
2022/12/13 06:27:50;;;;;;;34.42;30.90;;;;;;;;;;5097916;28;20581;-80
2022/12/13 06:30:17;;;;;;;32.92;30.00;;;;;;;;;;5097545;28;20222;-80
2022/12/13 06:32:48;;;;;;;34.95;31.42;;;;;;;;;;5097294;28;20727;-78
2022/12/13 06:35:15;;;;;;;35.60;32.05;;;;;;;;;;5096881;28;20187;-78
2022/12/13 06:37:43;;;;;;;32.83;29.73;;;;;;;;;;5098091;28;20207;-79
2022/12/13 06:40:10;;;;;;;34.30;30.92;;;;;;;;;;5097239;28;20214;-79
2022/12/13 06:42:39;;;;;;;36.03;32.28;;;;;;;;;;5097238;28;20207;-79
2022/12/13 06:45:06;;;;;;;35.60;32.10;;;;;;;;;;5096885;28;20203;-79
2022/12/13 06:47:33;;;;;;;36.13;32.40;;;;;;;;;;5097025;28;20202;-79
2022/12/13 06:50:00;;;;;;;33.97;30.48;;;;;;;;;;5097201;28;20233;-79
2022/12/13 06:52:27;;;;;;;36.35;32.05;;;;;;;;;;5097158;28;20581;-80
2022/12/13 06:54:54;;;;;;;34.10;30.88;;;;;;;;;;5096819;28;20202;-79
2022/12/13 06:57:21;;;;;;;34.63;30.98;;;;;;;;;;5097650;28;20317;-78
2022/12/13 06:59:50;;;;;;;34.92;31.33;;;;;;;;;;5096894;28;20225;-79
2022/12/13 07:02:17;;;;;;;38.40;34.58;;;;;;;;;;5095951;28;20214;-79
2022/12/13 07:04:45;;;;;;;35.15;31.38;;;;;;;;;;5096305;28;20241;-78
2022/12/13 07:07:12;;;;;;;33.22;29.77;;;;;;;;;;5096682;28;20231;-78
2022/12/13 07:09:39;;;;;;;35.40;32.03;;;;;;;;;;5096584;28;20628;-78
2022/12/13 07:12:06;;;;;;;34.13;30.60;;;;;;;;;;5096750;28;20664;-80
2022/12/13 07:14:33;;;;;;;37.00;32.03;;;;;;;;;;5095721;28;20220;-79
2022/12/13 07:17:02;;;;;;;34.38;30.85;;;;;;;;;;5095896;28;20226;-83
2022/12/13 07:19:29;;;;;;;36.42;32.47;;;;;;;;;;5097625;28;20206;-82
2022/12/13 07:21:56;;;;;;;33.40;30.13;;;;;;;;;;5096778;28;20210;-81
2022/12/13 07:24:23;;;;;;;34.92;31.23;;;;;;;;;;5096271;28;20214;-82
2022/12/13 07:26:50;;;;;;;35.22;30.45;;;;;;;;;;5097033;28;20235;-80
2022/12/13 07:29:17;;;;;;;34.55;30.75;;;;;;;;;;5096934;28;20245;-80
2022/12/13 07:31:44;;;;;;;42.22;35.30;;;;;;;;;;5096621;28;20206;-80
2022/12/13 07:34:13;;;;;;;36.53;30.55;;;;;;;;;;5095290;28;20206;-77
2022/12/13 07:36:40;;;;;;;34.97;31.45;;;;;;;;;;5092804;28;20227;-77
2022/12/13 07:39:08;;;;;;;36.35;31.50;;;;;;;;;;5094375;28;20210;-77
2022/12/13 07:41:35;;;;;;;34.80;30.50;;;;;;;;;;5093364;28;20187;-77
2022/12/13 07:44:02;;;;;;;35.83;31.35;;;;;;;;;;5092592;28;20203;-77
2022/12/13 07:46:29;;;;;;;36.20;32.47;;;;;;;;;;5092592;28;20223;-77
2022/12/13 07:48:56;;;;;;;36.40;32.78;;;;;;;;;;5092870;28;20206;-76
2022/12/13 07:51:25;;;;;;;35.10;31.60;;;;;;;;;;5093443;28;20205;-78
2022/12/13 07:53:53;;;;;;;34.17;30.75;;;;;;;;;;5092337;28;20229;-77
2022/12/13 07:56:20;;;;;;;35.92;32.20;;;;;;;;;;5092356;28;20702;-76
2022/12/13 07:58:47;;;;;;;35.47;31.83;;;;;;;;;;5093127;28;20209;-77
2022/12/13 08:01:14;;;;;;;33.60;30.02;;;;;;;;;;5092806;28;20264;-76
2022/12/13 08:03:41;;;;;;;34.38;31.08;;;;;;;;;;5092902;28;20355;-77
2022/12/13 08:06:10;;;;;;;33.08;29.88;;;;;;;;;;5093126;28;20234;-76
2022/12/13 08:08:39;;;;;;;33.92;30.60;;;;;;;;;;5092959;28;20202;-76
2022/12/13 08:11:07;;;;;;;34.72;31.05;;;;;;;;;;5092248;28;20227;-76
2022/12/13 08:13:34;;;;;;;35.15;31.55;;;;;;;;;;5092521;28;20203;-76
2022/12/13 08:16:02;;;;;;;35.42;31.75;;;;;;;;;;5092701;28;20241;-76
2022/12/13 08:18:30;;;;;;;37.03;32.83;;;;;;;;;;5092885;28;20214;-77
2022/12/13 08:21:00;;;;;;;36.88;32.83;;;;;;;;;;5092783;28;20206;-76
2022/12/13 08:23:28;;;;;;;40.70;35.58;;;;;;;;;;5092498;28;20206;-77
2022/12/13 08:25:56;;;;;;;35.47;32.00;;;;;;;;;;5093474;28;20222;-77
2022/12/13 08:28:24;;;;;;;37.63;33.72;;;;;;;;;;5092553;28;20210;-76
2022/12/13 08:30:51;;;;;;;36.65;33.25;;;;;;;;;;5092500;28;20214;-76
2022/12/13 08:33:19;;;;;;;35.28;31.65;;;;;;;;;;5096030;28;20207;-76
2022/12/13 08:35:48;;;;;;;36.10;32.38;;;;;;;;;;5095981;28;20222;-76
2022/12/13 08:38:15;;;;;;;36.65;31.40;;;;;;;;;;5096748;28;20198;-76
2022/12/13 08:40:42;;;;;;;36.50;32.90;;;;;;;;;;5096503;28;20737;-76
2022/12/13 08:43:10;;;;;;;36.28;32.72;;;;;;;;;;5095961;28;20203;-76
2022/12/13 08:45:37;;;;;;;40.55;36.13;;;;;;;;;;5095970;28;20230;-76
2022/12/13 08:48:05;;;;;;;38.67;34.70;;;;;;;;;;5096432;28;20214;-77
2022/12/13 08:50:32;;;;;;;37.97;34.08;;;;;;;;;;5096480;28;20313;-76
2022/12/13 08:52:59;;;;;;;37.05;33.60;;;;;;;;;;5096832;28;20209;-81
2022/12/13 08:55:26;;;;;;;40.53;32.90;;;;;;;;;;5094351;28;20230;-77
2022/12/13 08:57:53;;;;;;;34.25;30.95;;;;;;;;;;5076183;28;20211;-78
2022/12/13 09:00:21;;;;;;;34.38;30.67;;;;;;;;;;5075735;28;20225;-77
2022/12/13 09:02:49;;;;;;;34.63;30.98;;;;;;;;;;5076231;28;20211;-77
2022/12/13 09:05:16;;;;;;;32.55;29.42;;;;;;;;;;5075424;28;20651;-77
2022/12/13 09:07:43;;;;;;;38.20;32.17;;;;;;;;;;5078430;28;20219;-82
2022/12/13 09:10:11;;;;;;;42.88;34.03;;;;;;;;;;5076596;28;20223;-78
2022/12/13 09:12:41;;;;;;;51.78;37.75;;;;;;;;;;5075755;28;20214;-76
2022/12/13 09:15:08;;;;;;;44.75;36.88;;;;;;;;;;5075139;28;20207;-77
2022/12/13 09:17:36;;;;;;;46.03;36.50;;;;;;;;;;5075241;28;20214;-77
2022/12/13 09:20:04;;;;;;;45.88;36.42;;;;;;;;;;5075832;28;20206;-76
2022/12/13 09:22:31;;;;;;;43.67;35.40;;;;;;;;;;5075815;28;20207;-77
2022/12/13 09:24:58;;;;;;;42.45;35.70;;;;;;;;;;5074737;28;20207;-77
2022/12/13 09:27:25;;;;;;;52.28;37.05;;;;;;;;;;5076664;28;20219;-76
2022/12/13 09:29:52;;;;;;;40.17;31.40;;;;;;;;;;5076042;28;20226;-80
2022/12/13 09:32:19;;;;;;;37.05;32.72;;;;;;;;;;5088417;28;20594;-85
2022/12/13 09:34:49;;;;;;;28.88;26.48;;;;;;;;;;5101897;28;20565;-83
2022/12/13 09:37:16;;;;;;;34.45;30.95;;;;;;;;;;5101561;28;20337;-82
2022/12/13 09:39:43;;;;;;;31.98;29.13;;;;;;;;;;5100965;28;20678;-83
2022/12/13 09:42:16;;;;;;;34.70;31.40;;;;;;;;;;5101453;28;20655;-83
2022/12/13 09:44:48;;;;;;;35.70;32.00;;;;;;;;;;5099746;28;20547;-82
2022/12/13 09:47:21;;;;;;;34.47;30.98;;;;;;;;;;5101520;28;20226;-82
2022/12/13 09:49:50;;;;;;;33.33;30.13;;;;;;;;;;5101020;28;20207;-84
2022/12/13 09:52:18;;;;;;;33.42;29.98;;;;;;;;;;5101239;28;20209;-84
2022/12/13 09:54:45;;;;;;;32.38;29.58;;;;;;;;;;5100526;28;20221;-83
2022/12/13 09:57:16;;;;;;;30.33;27.73;;;;;;;;;;5101506;28;20222;-83
2022/12/13 09:59:43;;;;;;;33.55;30.08;;;;;;;;;;5082473;28;20210;-83
2022/12/13 10:02:16;;;;;;;30.83;27.98;;;;;;;;;;5079591;28;20215;-83
2022/12/13 10:04:43;;;;;;;31.83;28.92;;;;;;;;;;5079768;28;20298;-83
2022/12/13 10:07:16;;;;;;;30.60;27.85;;;;;;;;;;5079659;28;20230;-84
2022/12/13 10:09:43;;;;;;;32.47;29.20;;;;;;;;;;5080283;28;20210;-83
2022/12/13 10:12:13;;;;;;;30.77;27.92;;;;;;;;;;5079678;28;20207;-84
2022/12/13 10:14:44;;;;;;;32.20;28.80;;;;;;;;;;5079949;28;20226;-83
2022/12/13 10:17:14;;;;;;;31.38;28.33;;;;;;;;;;5080530;28;20223;-83
2022/12/13 10:19:43;;;;;;;33.00;29.65;;;;;;;;;;5079434;28;20244;-82
2022/12/13 10:22:12;;;;;;;33.10;30.00;;;;;;;;;;5078639;28;20215;-83
2022/12/13 10:24:50;;;;;;;32.55;29.38;;;;;;;;;;5079064;28;20215;-83
2022/12/13 10:27:19;;;;;;;30.42;27.65;;;;;;;;;;5078816;28;20589;-84
2022/12/13 10:30:00;;;;;;;32.13;29.27;;;;;;;;;;5079831;28;20203;-84
2022/12/13 10:32:27;;;;;;;31.85;28.83;;;;;;;;;;5079538;28;20220;-85
2022/12/13 10:34:55;;;;;;;32.47;29.63;;;;;;;;;;5078938;28;20211;-83
2022/12/13 10:37:27;;;;;;;32.00;28.95;;;;;;;;;;5079709;28;20274;-82
2022/12/13 10:39:56;;;;;;;35.97;30.33;;;;;;;;;;5079819;28;20721;-82
2022/12/13 10:42:23;;;;;;;31.48;28.23;;;;;;;;;;5079373;28;20210;-84
2022/12/13 10:44:50;;;;;;;30.85;27.95;;;;;;;;;;5078961;28;20191;-83
2022/12/13 10:47:18;;;;;;;30.02;27.30;;;;;;;;;;5080101;28;20230;-82
2022/12/13 10:49:51;;;;;;;31.80;28.80;;;;;;;;;;5079406;28;20208;-82
2022/12/13 10:52:25;;;;;;;31.15;28.60;;;;;;;;;;5080081;28;20199;-83
2022/12/13 10:54:52;;;;;;;31.00;28.30;;;;;;;;;;5078384;28;20574;-84
2022/12/13 10:57:21;;;;;;;30.63;28.20;;;;;;;;;;5079553;28;20227;-82
2022/12/13 10:59:49;;;;;;;31.02;28.17;;;;;;;;;;5079277;28;20207;-82
2022/12/13 11:02:30;;;;;;;32.30;29.27;;;;;;;;;;5079398;28;20199;-82
2022/12/13 11:04:57;;;;;;;44.85;31.00;;;;;;;;;;5078531;28;20222;-82
2022/12/13 11:07:25;;;;;;;32.60;29.65;;;;;;;;;;5078966;28;20305;-83
2022/12/13 11:09:52;;;;;;;32.60;29.65;;;;;;;;;;5079486;28;20226;-82
2022/12/13 11:12:22;;;;;;;30.38;27.58;;;;;;;;;;5078348;28;20226;-82
2022/12/13 11:14:53;;;;;;;29.35;26.75;;;;;;;;;;5077988;28;20207;-80
2022/12/13 11:17:23;;;;;;;41.05;36.42;;;;;;;;;;5077745;28;20594;-81
2022/12/13 11:19:53;;;;;;;31.85;28.95;;;;;;;;;;5077682;28;20627;-81
2022/12/13 11:22:21;;;;;;;28.00;25.50;;;;;;;;;;5077593;28;20200;-81
2022/12/13 11:24:51;;;;;;;28.52;26.23;;;;;;;;;;5077032;28;20215;-80
2022/12/13 11:27:32;;;;;;;28.73;26.10;;;;;;;;;;5077573;28;20231;-81
2022/12/13 11:30:04;;;;;;;28.80;26.33;;;;;;;;;;5076100;28;20190;-79
2022/12/13 11:32:37;;;;;;;29.48;27.02;;;;;;;;;;5075395;28;20196;-80
2022/12/13 11:35:09;;;;;;;29.23;26.63;;;;;;;;;;5074208;28;20212;-81
2022/12/13 11:37:44;;;;;;;29.63;26.92;;;;;;;;;;5085397;28;20214;-82
2022/12/13 11:40:14;;;;;;;30.42;27.48;;;;;;;;;;5075563;28;20211;-80
2022/12/13 11:42:44;;;;;;;31.10;28.10;;;;;;;;;;5074484;28;20207;-79
2022/12/13 11:45:14;;;;;;;30.98;28.33;;;;;;;;;;5075090;28;20187;-79
2022/12/13 11:47:44;;;;;;;27.80;25.30;;;;;;;;;;5085420;28;20214;-80
2022/12/13 11:50:16;;;;;;;29.65;26.90;;;;;;;;;;5096242;28;20506;-80
2022/12/13 11:52:46;;;;;;;28.58;26.15;;;;;;;;;;5096285;28;20207;-79
2022/12/13 11:55:16;;;;;;;28.17;25.67;;;;;;;;;;5094833;28;20202;-79
2022/12/13 11:57:48;;;;;;;32.00;29.35;;;;;;;;;;5095322;28;20689;-79
2022/12/13 12:00:30;;;;;;;29.33;26.73;;;;;;;;;;5094788;28;20222;-79
2022/12/13 12:03:00;;;;;;;31.35;28.45;;;;;;;;;;5095921;28;20244;-79
2022/12/13 12:05:29;;;;;;;29.48;26.85;;;;;;;;;;5095089;28;20223;-79
2022/12/13 12:07:59;;;;;;;28.52;26.05;;;;;;;;;;5093685;28;20735;-79
2022/12/13 12:10:29;;;;;;;29.40;26.88;;;;;;;;;;5093341;28;20591;-79
2022/12/13 12:12:59;;;;;;;30.63;27.73;;;;;;;;;;5094993;28;20191;-78
2022/12/13 12:15:28;;;;;;;27.90;25.48;;;;;;;;;;5094585;28;20227;-78
2022/12/13 12:17:56;;;;;;;28.13;25.60;;;;;;;;;;5095165;28;20210;-79
2022/12/13 12:20:27;;;;;;;27.70;25.05;;;;;;;;;;5095163;28;20209;-79
2022/12/13 12:23:01;;;;;;;27.05;24.60;;;;;;;;;;5094619;28;20198;-79
2022/12/13 12:25:33;;;;;;;27.50;25.30;;;;;;;;;;5094524;28;20584;-78
2022/12/13 12:28:05;;;;;;;27.88;25.58;;;;;;;;;;5094676;28;20191;-79
2022/12/13 12:30:40;;;;;;;28.00;25.63;;;;;;;;;;5094443;28;20222;-78
2022/12/13 12:33:14;;;;;;;27.25;24.75;;;;;;;;;;5093930;28;20222;-79
2022/12/13 12:35:51;;;;;;;27.70;24.80;;;;;;;;;;5094822;28;20231;-79
2022/12/13 12:38:29;;;;;;;26.20;24.20;;;;;;;;;;5094512;28;20277;-79
2022/12/13 12:41:02;;;;;;;26.80;24.60;;;;;;;;;;5094177;28;20698;-78
2022/12/13 12:43:32;;;;;;;25.35;23.42;;;;;;;;;;5095130;28;20191;-79
2022/12/13 12:46:07;;;;;;;26.83;24.45;;;;;;;;;;5095357;28;20223;-79
2022/12/13 12:48:50;;;;;;;27.33;25.23;;;;;;;;;;5094702;28;20676;-79
2022/12/13 12:51:20;;;;;;;26.90;24.73;;;;;;;;;;5094402;28;20235;-79
2022/12/13 12:53:48;;;;;;;27.65;25.30;;;;;;;;;;5094599;28;20623;-79
2022/12/13 12:56:24;;;;;;;27.17;24.77;;;;;;;;;;5094994;28;20223;-78
2022/12/13 12:58:57;;;;;;;25.80;23.60;;;;;;;;;;5094999;28;20191;-79
2022/12/13 13:01:36;;;;;;;25.70;23.60;;;;;;;;;;5094346;28;20214;-79
2022/12/13 13:04:06;;;;;;;28.45;25.95;;;;;;;;;;5094477;28;20570;-80
2022/12/13 13:06:35;;;;;;;27.85;25.35;;;;;;;;;;5095108;28;20663;-80
2022/12/13 13:09:04;;;;;;;25.60;23.60;;;;;;;;;;5094651;28;20215;-78
2022/12/13 13:11:33;;;;;;;26.38;24.08;;;;;;;;;;5093668;28;20228;-79
2022/12/13 13:14:05;;;;;;;27.45;24.83;;;;;;;;;;5095161;28;20207;-79
2022/12/13 13:16:34;;;;;;;28.02;25.80;;;;;;;;;;5094960;28;20254;-79
2022/12/13 13:19:01;;;;;;;27.20;24.98;;;;;;;;;;5097175;28;20677;-79
2022/12/13 13:21:33;;;;;;;26.73;24.48;;;;;;;;;;5098256;28;20207;-79
2022/12/13 13:24:07;;;;;;;27.15;24.83;;;;;;;;;;5096816;28;20206;-79
2022/12/13 13:26:36;;;;;;;26.52;24.42;;;;;;;;;;5098293;28;20227;-79
2022/12/13 13:29:30;;;;;;;28.38;25.98;;;;;;;;;;5098003;28;20218;-79
2022/12/13 13:31:58;;;;;;;25.85;23.73;;;;;;;;;;5097358;28;20674;-79
2022/12/13 13:34:26;;;;;;;27.80;25.40;;;;;;;;;;5096741;28;20218;-78
2022/12/13 13:36:55;;;;;;;27.30;24.80;;;;;;;;;;5097657;28;20222;-78
2022/12/13 13:39:38;;;;;;;27.00;24.67;;;;;;;;;;5097056;28;20212;-79
2022/12/13 13:42:18;;;;;;;28.60;26.10;;;;;;;;;;5097729;28;20546;-79
2022/12/13 13:45:00;;;;;;;27.15;24.85;;;;;;;;;;5096382;28;20206;-79
2022/12/13 13:47:38;;;;;;;28.10;25.38;;;;;;;;;;5097404;28;20199;-79
2022/12/13 13:50:23;;;;;;;30.02;27.48;;;;;;;;;;5098871;28;20230;-79
2022/12/13 13:52:58;;;;;;;28.92;26.35;;;;;;;;;;5097780;28;20203;-77
2022/12/13 13:55:35;;;;;;;28.63;26.00;;;;;;;;;;5096735;28;20219;-80
2022/12/13 13:58:16;;;;;;;28.88;26.42;;;;;;;;;;5096934;28;20585;-78
2022/12/13 14:01:01;;;;;;;28.25;25.85;;;;;;;;;;5097477;28;20187;-77
2022/12/13 14:03:49;;;;;;;28.70;26.40;;;;;;;;;;5065729;28;20217;-79
2022/12/13 14:06:42;;;;;;;29.80;26.92;;;;;;;;;;5096805;28;20223;-78
2022/12/13 14:09:21;;;;;;;30.73;27.77;;;;;;;;;;5060083;28;20236;-78
2022/12/13 14:12:09;;;;;;;29.13;26.30;;;;;;;;;;5095901;28;20225;-79
2022/12/13 14:14:51;;;;;;;29.70;26.98;;;;;;;;;;5095983;28;20715;-78
2022/12/13 14:17:31;;;;;;;30.45;27.55;;;;;;;;;;5096869;28;20223;-79
2022/12/13 14:20:17;;;;;;;29.52;26.92;;;;;;;;;;5097310;28;20198;-79
2022/12/13 14:22:46;;;;;;;31.38;27.95;;;;;;;;;;5097479;28;20186;-79
2022/12/13 14:25:41;;;;;;;32.45;29.25;;;;;;;;;;5096008;28;20214;-78
2022/12/13 14:28:11;;;;;;;31.42;28.45;;;;;;;;;;5096639;28;20202;-76
2022/12/13 14:30:42;;;;;;;32.88;29.67;;;;;;;;;;5093349;28;20225;-75
2022/12/13 14:33:14;;;;;;;30.75;28.13;;;;;;;;;;5094145;28;20281;-77
2022/12/13 14:35:51;;;;;;;31.98;28.67;;;;;;;;;;5094613;28;20228;-76
2022/12/13 14:38:22;;;;;;;30.90;28.13;;;;;;;;;;5094112;28;20647;-75